sensor_id;sensor_type;location;lat;lon;timestamp;P1;durP1;ratioP1;P2;durP2;ratioP2
11548;SDS011;61444;59.472;18.306;2023-01-29T00:01:46;4.67;;;1.20;;
11548;SDS011;61444;59.472;18.306;2023-01-29T00:03:56;8.10;;;1.90;;
11548;SDS011;61444;59.472;18.306;2023-01-29T00:06:06;2.93;;;1.20;;
11548;SDS011;61444;59.472;18.306;2023-01-29T00:08:15;2.43;;;1.00;;
11548;SDS011;61444;59.472;18.306;2023-01-29T00:10:24;6.60;;;1.07;;
11548;SDS011;61444;59.472;18.306;2023-01-29T00:12:34;5.97;;;1.37;;
11548;SDS011;61444;59.472;18.306;2023-01-29T00:14:44;4.23;;;1.37;;
11548;SDS011;61444;59.472;18.306;2023-01-29T00:16:53;4.03;;;1.30;;
11548;SDS011;61444;59.472;18.306;2023-01-29T00:19:02;3.93;;;1.40;;
11548;SDS011;61444;59.472;18.306;2023-01-29T00:21:11;6.57;;;1.30;;
11548;SDS011;61444;59.472;18.306;2023-01-29T00:23:21;3.33;;;1.10;;
11548;SDS011;61444;59.472;18.306;2023-01-29T00:25:30;5.03;;;0.90;;
11548;SDS011;61444;59.472;18.306;2023-01-29T00:27:40;7.27;;;1.50;;
11548;SDS011;61444;59.472;18.306;2023-01-29T00:29:50;3.83;;;0.70;;
11548;SDS011;61444;59.472;18.306;2023-01-29T00:32:17;5.33;;;1.00;;
11548;SDS011;61444;59.472;18.306;2023-01-29T00:34:26;4.33;;;1.10;;
11548;SDS011;61444;59.472;18.306;2023-01-29T00:36:35;3.67;;;0.97;;
11548;SDS011;61444;59.472;18.306;2023-01-29T00:38:43;3.27;;;0.90;;
11548;SDS011;61444;59.472;18.306;2023-01-29T00:41:04;4.10;;;1.10;;
11548;SDS011;61444;59.472;18.306;2023-01-29T00:43:32;4.80;;;0.60;;
11548;SDS011;61444;59.472;18.306;2023-01-29T00:45:58;4.33;;;1.20;;
11548;SDS011;61444;59.472;18.306;2023-01-29T00:48:07;5.47;;;1.27;;
11548;SDS011;61444;59.472;18.306;2023-01-29T00:50:16;4.27;;;0.93;;
11548;SDS011;61444;59.472;18.306;2023-01-29T00:52:25;4.00;;;1.17;;
11548;SDS011;61444;59.472;18.306;2023-01-29T00:54:34;3.73;;;0.90;;
11548;SDS011;61444;59.472;18.306;2023-01-29T00:56:43;3.43;;;1.00;;
11548;SDS011;61444;59.472;18.306;2023-01-29T00:58:54;3.27;;;1.23;;
11548;SDS011;61444;59.472;18.306;2023-01-29T01:01:03;6.27;;;1.13;;
11548;SDS011;61444;59.472;18.306;2023-01-29T01:03:12;5.77;;;0.93;;
11548;SDS011;61444;59.472;18.306;2023-01-29T01:05:19;2.73;;;1.13;;
11548;SDS011;61444;59.472;18.306;2023-01-29T01:07:29;4.33;;;1.50;;
11548;SDS011;61444;59.472;18.306;2023-01-29T01:09:38;3.20;;;1.10;;
11548;SDS011;61444;59.472;18.306;2023-01-29T01:12:05;2.00;;;0.80;;
11548;SDS011;61444;59.472;18.306;2023-01-29T01:14:15;3.97;;;1.17;;
11548;SDS011;61444;59.472;18.306;2023-01-29T01:16:25;4.90;;;1.27;;
11548;SDS011;61444;59.472;18.306;2023-01-29T01:18:34;5.03;;;1.17;;
11548;SDS011;61444;59.472;18.306;2023-01-29T01:20:43;8.30;;;1.27;;
11548;SDS011;61444;59.472;18.306;2023-01-29T01:22:56;4.10;;;1.10;;
11548;SDS011;61444;59.472;18.306;2023-01-29T01:25:06;3.57;;;1.00;;
11548;SDS011;61444;59.472;18.306;2023-01-29T01:27:15;6.47;;;1.00;;
11548;SDS011;61444;59.472;18.306;2023-01-29T01:29:26;2.67;;;1.10;;
11548;SDS011;61444;59.472;18.306;2023-01-29T01:31:35;4.33;;;1.20;;
11548;SDS011;61444;59.472;18.306;2023-01-29T01:33:44;5.37;;;1.20;;
11548;SDS011;61444;59.472;18.306;2023-01-29T01:35:53;6.47;;;1.33;;
11548;SDS011;61444;59.472;18.306;2023-01-29T01:38:01;2.40;;;1.10;;
11548;SDS011;61444;59.472;18.306;2023-01-29T01:40:12;4.97;;;1.40;;
11548;SDS011;61444;59.472;18.306;2023-01-29T01:42:26;5.30;;;1.20;;
11548;SDS011;61444;59.472;18.306;2023-01-29T01:47:18;6.97;;;1.50;;
11548;SDS011;61444;59.472;18.306;2023-01-29T01:49:28;3.77;;;1.13;;
11548;SDS011;61444;59.472;18.306;2023-01-29T01:51:38;3.80;;;1.33;;
11548;SDS011;61444;59.472;18.306;2023-01-29T01:53:49;8.33;;;1.20;;
11548;SDS011;61444;59.472;18.306;2023-01-29T01:56:01;6.13;;;1.37;;
11548;SDS011;61444;59.472;18.306;2023-01-29T01:58:11;7.97;;;1.17;;
11548;SDS011;61444;59.472;18.306;2023-01-29T02:00:21;3.27;;;0.97;;
11548;SDS011;61444;59.472;18.306;2023-01-29T02:02:33;2.60;;;1.30;;
11548;SDS011;61444;59.472;18.306;2023-01-29T02:05:00;6.40;;;1.20;;
11548;SDS011;61444;59.472;18.306;2023-01-29T02:07:26;4.13;;;1.30;;
11548;SDS011;61444;59.472;18.306;2023-01-29T02:09:54;4.90;;;1.13;;
11548;SDS011;61444;59.472;18.306;2023-01-29T02:12:07;5.27;;;1.53;;
11548;SDS011;61444;59.472;18.306;2023-01-29T02:14:16;3.47;;;1.30;;
11548;SDS011;61444;59.472;18.306;2023-01-29T02:16:25;7.53;;;1.20;;
11548;SDS011;61444;59.472;18.306;2023-01-29T02:18:36;4.23;;;1.10;;
11548;SDS011;61444;59.472;18.306;2023-01-29T02:20:48;2.83;;;1.23;;
11548;SDS011;61444;59.472;18.306;2023-01-29T02:28:11;2.43;;;1.13;;
11548;SDS011;61444;59.472;18.306;2023-01-29T02:30:22;3.20;;;0.90;;
11548;SDS011;61444;59.472;18.306;2023-01-29T02:32:34;7.33;;;1.87;;
11548;SDS011;61444;59.472;18.306;2023-01-29T02:34:47;1.80;;;0.97;;
11548;SDS011;61444;59.472;18.306;2023-01-29T02:37:16;4.47;;;1.20;;
11548;SDS011;61444;59.472;18.306;2023-01-29T02:39:27;1.93;;;1.00;;
11548;SDS011;61444;59.472;18.306;2023-01-29T02:41:40;2.57;;;1.30;;
11548;SDS011;61444;59.472;18.306;2023-01-29T02:43:54;4.30;;;1.13;;
11548;SDS011;61444;59.472;18.306;2023-01-29T02:46:06;3.47;;;1.23;;
11548;SDS011;61444;59.472;18.306;2023-01-29T02:48:17;4.77;;;1.37;;
11548;SDS011;61444;59.472;18.306;2023-01-29T02:50:28;4.67;;;1.20;;
11548;SDS011;61444;59.472;18.306;2023-01-29T02:52:39;4.10;;;1.30;;
11548;SDS011;61444;59.472;18.306;2023-01-29T02:54:50;3.53;;;1.10;;
11548;SDS011;61444;59.472;18.306;2023-01-29T02:57:03;3.23;;;1.40;;
11548;SDS011;61444;59.472;18.306;2023-01-29T02:59:15;2.43;;;1.10;;
11548;SDS011;61444;59.472;18.306;2023-01-29T03:01:26;4.30;;;1.60;;
11548;SDS011;61444;59.472;18.306;2023-01-29T03:03:38;5.57;;;1.43;;
11548;SDS011;61444;59.472;18.306;2023-01-29T03:05:50;5.37;;;1.47;;
11548;SDS011;61444;59.472;18.306;2023-01-29T03:08:03;7.03;;;1.20;;
11548;SDS011;61444;59.472;18.306;2023-01-29T03:10:15;1.47;;;1.13;;
11548;SDS011;61444;59.472;18.306;2023-01-29T03:12:25;6.37;;;1.63;;
11548;SDS011;61444;59.472;18.306;2023-01-29T03:14:40;2.43;;;1.17;;
11548;SDS011;61444;59.472;18.306;2023-01-29T03:17:03;4.87;;;1.40;;
11548;SDS011;61444;59.472;18.306;2023-01-29T03:19:17;3.77;;;1.27;;
11548;SDS011;61444;59.472;18.306;2023-01-29T03:21:28;6.23;;;1.47;;
11548;SDS011;61444;59.472;18.306;2023-01-29T03:23:57;2.80;;;1.03;;
11548;SDS011;61444;59.472;18.306;2023-01-29T03:26:24;2.30;;;1.30;;
11548;SDS011;61444;59.472;18.306;2023-01-29T03:28:50;3.43;;;1.37;;
11548;SDS011;61444;59.472;18.306;2023-01-29T03:31:18;3.97;;;1.10;;
11548;SDS011;61444;59.472;18.306;2023-01-29T03:33:47;7.60;;;1.30;;
11548;SDS011;61444;59.472;18.306;2023-01-29T03:35:58;3.03;;;1.23;;
11548;SDS011;61444;59.472;18.306;2023-01-29T03:38:09;6.37;;;1.80;;
11548;SDS011;61444;59.472;18.306;2023-01-29T03:40:19;5.90;;;1.53;;
11548;SDS011;61444;59.472;18.306;2023-01-29T03:42:30;4.00;;;1.27;;
11548;SDS011;61444;59.472;18.306;2023-01-29T03:44:46;2.87;;;1.40;;
11548;SDS011;61444;59.472;18.306;2023-01-29T03:47:02;1.47;;;1.20;;
11548;SDS011;61444;59.472;18.306;2023-01-29T03:49:14;3.30;;;1.37;;
11548;SDS011;61444;59.472;18.306;2023-01-29T03:51:27;4.83;;;1.53;;
11548;SDS011;61444;59.472;18.306;2023-01-29T03:53:40;1.60;;;1.10;;
11548;SDS011;61444;59.472;18.306;2023-01-29T03:55:52;6.77;;;1.20;;
11548;SDS011;61444;59.472;18.306;2023-01-29T03:58:04;9.53;;;1.87;;
11548;SDS011;61444;59.472;18.306;2023-01-29T04:00:18;8.13;;;1.47;;
11548;SDS011;61444;59.472;18.306;2023-01-29T04:02:30;3.63;;;1.30;;
11548;SDS011;61444;59.472;18.306;2023-01-29T04:04:43;5.57;;;1.53;;
11548;SDS011;61444;59.472;18.306;2023-01-29T04:06:53;4.90;;;1.40;;
11548;SDS011;61444;59.472;18.306;2023-01-29T04:09:05;5.73;;;1.57;;
11548;SDS011;61444;59.472;18.306;2023-01-29T04:11:16;4.93;;;1.50;;
11548;SDS011;61444;59.472;18.306;2023-01-29T04:13:26;3.33;;;1.57;;
11548;SDS011;61444;59.472;18.306;2023-01-29T04:15:37;4.60;;;1.60;;
11548;SDS011;61444;59.472;18.306;2023-01-29T04:17:50;4.73;;;1.93;;
11548;SDS011;61444;59.472;18.306;2023-01-29T04:19:59;6.80;;;1.50;;
11548;SDS011;61444;59.472;18.306;2023-01-29T04:22:09;6.57;;;1.60;;
11548;SDS011;61444;59.472;18.306;2023-01-29T04:24:20;4.63;;;1.90;;
11548;SDS011;61444;59.472;18.306;2023-01-29T04:26:32;4.53;;;1.40;;
11548;SDS011;61444;59.472;18.306;2023-01-29T04:28:50;6.60;;;1.67;;
11548;SDS011;61444;59.472;18.306;2023-01-29T04:31:02;5.40;;;1.60;;
11548;SDS011;61444;59.472;18.306;2023-01-29T04:33:17;3.20;;;1.43;;
11548;SDS011;61444;59.472;18.306;2023-01-29T04:35:30;4.07;;;1.50;;
11548;SDS011;61444;59.472;18.306;2023-01-29T04:37:42;5.33;;;1.27;;
11548;SDS011;61444;59.472;18.306;2023-01-29T04:39:53;4.77;;;1.97;;
11548;SDS011;61444;59.472;18.306;2023-01-29T04:42:05;4.60;;;2.00;;
11548;SDS011;61444;59.472;18.306;2023-01-29T04:44:15;5.13;;;2.17;;
11548;SDS011;61444;59.472;18.306;2023-01-29T04:46:26;5.07;;;1.70;;
11548;SDS011;61444;59.472;18.306;2023-01-29T04:48:42;4.63;;;1.80;;
11548;SDS011;61444;59.472;18.306;2023-01-29T04:50:55;4.90;;;1.70;;
11548;SDS011;61444;59.472;18.306;2023-01-29T04:53:06;6.93;;;1.83;;
11548;SDS011;61444;59.472;18.306;2023-01-29T04:55:19;4.87;;;1.70;;
11548;SDS011;61444;59.472;18.306;2023-01-29T04:57:30;9.20;;;1.87;;
11548;SDS011;61444;59.472;18.306;2023-01-29T04:59:41;7.30;;;1.80;;
11548;SDS011;61444;59.472;18.306;2023-01-29T05:01:52;4.93;;;1.70;;
11548;SDS011;61444;59.472;18.306;2023-01-29T05:04:03;9.13;;;2.80;;
11548;SDS011;61444;59.472;18.306;2023-01-29T05:06:12;7.40;;;1.90;;
11548;SDS011;61444;59.472;18.306;2023-01-29T05:08:23;5.13;;;1.97;;
11548;SDS011;61444;59.472;18.306;2023-01-29T05:10:32;3.23;;;1.80;;
11548;SDS011;61444;59.472;18.306;2023-01-29T05:12:44;4.40;;;2.17;;
11548;SDS011;61444;59.472;18.306;2023-01-29T05:14:55;5.23;;;1.97;;
11548;SDS011;61444;59.472;18.306;2023-01-29T05:17:08;6.77;;;2.03;;
11548;SDS011;61444;59.472;18.306;2023-01-29T05:19:20;5.33;;;2.13;;
11548;SDS011;61444;59.472;18.306;2023-01-29T05:21:29;6.17;;;2.10;;
11548;SDS011;61444;59.472;18.306;2023-01-29T05:23:38;6.03;;;1.67;;
11548;SDS011;61444;59.472;18.306;2023-01-29T05:26:05;6.97;;;1.97;;
11548;SDS011;61444;59.472;18.306;2023-01-29T05:28:14;5.57;;;1.80;;
11548;SDS011;61444;59.472;18.306;2023-01-29T05:30:22;6.43;;;1.90;;
11548;SDS011;61444;59.472;18.306;2023-01-29T05:32:31;4.07;;;1.57;;
11548;SDS011;61444;59.472;18.306;2023-01-29T05:34:41;4.70;;;1.90;;
11548;SDS011;61444;59.472;18.306;2023-01-29T05:36:49;7.03;;;1.80;;
11548;SDS011;61444;59.472;18.306;2023-01-29T05:38:59;6.13;;;1.60;;
11548;SDS011;61444;59.472;18.306;2023-01-29T05:41:08;7.13;;;2.20;;
11548;SDS011;61444;59.472;18.306;2023-01-29T05:43:18;6.77;;;2.10;;
11548;SDS011;61444;59.472;18.306;2023-01-29T05:45:27;8.13;;;2.20;;
11548;SDS011;61444;59.472;18.306;2023-01-29T05:47:36;6.83;;;2.43;;
11548;SDS011;61444;59.472;18.306;2023-01-29T05:49:46;9.33;;;2.73;;
11548;SDS011;61444;59.472;18.306;2023-01-29T05:51:58;3.63;;;2.10;;
11548;SDS011;61444;59.472;18.306;2023-01-29T05:54:06;5.07;;;2.23;;
11548;SDS011;61444;59.472;18.306;2023-01-29T05:56:15;6.07;;;2.30;;
11548;SDS011;61444;59.472;18.306;2023-01-29T05:58:25;6.27;;;2.37;;
11548;SDS011;61444;59.472;18.306;2023-01-29T06:00:33;5.87;;;2.07;;
11548;SDS011;61444;59.472;18.306;2023-01-29T06:02:43;6.30;;;2.10;;
11548;SDS011;61444;59.472;18.306;2023-01-29T06:04:53;4.93;;;2.20;;
11548;SDS011;61444;59.472;18.306;2023-01-29T06:07:02;4.73;;;2.10;;
11548;SDS011;61444;59.472;18.306;2023-01-29T06:09:11;7.97;;;2.73;;
11548;SDS011;61444;59.472;18.306;2023-01-29T06:11:20;8.80;;;2.70;;
11548;SDS011;61444;59.472;18.306;2023-01-29T06:13:29;6.67;;;2.50;;
11548;SDS011;61444;59.472;18.306;2023-01-29T06:15:39;6.43;;;2.73;;
11548;SDS011;61444;59.472;18.306;2023-01-29T06:17:48;6.37;;;2.60;;
11548;SDS011;61444;59.472;18.306;2023-01-29T06:19:58;6.57;;;3.33;;
11548;SDS011;61444;59.472;18.306;2023-01-29T06:22:07;10.07;;;2.77;;
11548;SDS011;61444;59.472;18.306;2023-01-29T06:24:16;5.40;;;2.20;;
11548;SDS011;61444;59.472;18.306;2023-01-29T06:26:24;8.63;;;2.67;;
11548;SDS011;61444;59.472;18.306;2023-01-29T06:28:34;6.37;;;2.13;;
11548;SDS011;61444;59.472;18.306;2023-01-29T06:30:42;5.47;;;2.73;;
11548;SDS011;61444;59.472;18.306;2023-01-29T06:32:54;4.23;;;2.23;;
11548;SDS011;61444;59.472;18.306;2023-01-29T06:35:06;5.80;;;2.50;;
11548;SDS011;61444;59.472;18.306;2023-01-29T06:37:15;5.97;;;2.57;;
11548;SDS011;61444;59.472;18.306;2023-01-29T06:39:24;4.80;;;2.83;;
11548;SDS011;61444;59.472;18.306;2023-01-29T06:41:33;4.83;;;2.80;;
11548;SDS011;61444;59.472;18.306;2023-01-29T06:43:42;9.47;;;2.63;;
11548;SDS011;61444;59.472;18.306;2023-01-29T06:45:52;8.97;;;3.33;;
11548;SDS011;61444;59.472;18.306;2023-01-29T06:48:02;7.30;;;2.93;;
11548;SDS011;61444;59.472;18.306;2023-01-29T06:50:12;5.23;;;2.30;;
11548;SDS011;61444;59.472;18.306;2023-01-29T06:52:22;6.67;;;2.47;;
11548;SDS011;61444;59.472;18.306;2023-01-29T06:54:37;6.03;;;2.73;;
11548;SDS011;61444;59.472;18.306;2023-01-29T06:56:46;9.23;;;3.03;;
11548;SDS011;61444;59.472;18.306;2023-01-29T06:58:55;8.03;;;2.37;;
11548;SDS011;61444;59.472;18.306;2023-01-29T07:01:04;5.93;;;2.60;;
11548;SDS011;61444;59.472;18.306;2023-01-29T07:03:13;7.80;;;2.57;;
11548;SDS011;61444;59.472;18.306;2023-01-29T07:05:24;6.37;;;2.30;;
11548;SDS011;61444;59.472;18.306;2023-01-29T07:07:34;12.83;;;2.80;;
11548;SDS011;61444;59.472;18.306;2023-01-29T07:09:43;6.30;;;2.87;;
11548;SDS011;61444;59.472;18.306;2023-01-29T07:11:52;8.03;;;2.67;;
11548;SDS011;61444;59.472;18.306;2023-01-29T07:14:01;4.67;;;2.13;;
11548;SDS011;61444;59.472;18.306;2023-01-29T07:16:10;6.67;;;2.50;;
11548;SDS011;61444;59.472;18.306;2023-01-29T07:18:19;7.33;;;3.30;;
11548;SDS011;61444;59.472;18.306;2023-01-29T07:20:30;9.37;;;3.17;;
11548;SDS011;61444;59.472;18.306;2023-01-29T07:22:39;5.97;;;2.57;;
11548;SDS011;61444;59.472;18.306;2023-01-29T07:24:48;6.80;;;2.57;;
11548;SDS011;61444;59.472;18.306;2023-01-29T07:26:57;5.50;;;2.30;;
11548;SDS011;61444;59.472;18.306;2023-01-29T07:29:05;4.60;;;2.20;;
11548;SDS011;61444;59.472;18.306;2023-01-29T07:31:14;8.40;;;2.73;;
11548;SDS011;61444;59.472;18.306;2023-01-29T07:33:24;9.17;;;2.73;;
11548;SDS011;61444;59.472;18.306;2023-01-29T07:35:37;5.43;;;2.03;;
11548;SDS011;61444;59.472;18.306;2023-01-29T07:37:47;7.47;;;2.47;;
11548;SDS011;61444;59.472;18.306;2023-01-29T07:39:56;3.37;;;2.30;;
11548;SDS011;61444;59.472;18.306;2023-01-29T07:42:05;9.80;;;2.50;;
11548;SDS011;61444;59.472;18.306;2023-01-29T07:44:14;3.73;;;2.40;;
11548;SDS011;61444;59.472;18.306;2023-01-29T07:46:23;7.53;;;2.60;;
11548;SDS011;61444;59.472;18.306;2023-01-29T07:48:32;7.43;;;3.00;;
11548;SDS011;61444;59.472;18.306;2023-01-29T07:50:43;3.63;;;1.90;;
11548;SDS011;61444;59.472;18.306;2023-01-29T07:52:52;8.10;;;2.50;;
11548;SDS011;61444;59.472;18.306;2023-01-29T07:55:02;7.03;;;2.00;;
11548;SDS011;61444;59.472;18.306;2023-01-29T07:57:10;5.20;;;2.13;;
11548;SDS011;61444;59.472;18.306;2023-01-29T07:59:19;5.07;;;2.23;;
11548;SDS011;61444;59.472;18.306;2023-01-29T08:01:28;7.00;;;2.33;;
11548;SDS011;61444;59.472;18.306;2023-01-29T08:03:37;6.13;;;2.60;;
11548;SDS011;61444;59.472;18.306;2023-01-29T08:05:48;9.73;;;2.37;;
11548;SDS011;61444;59.472;18.306;2023-01-29T08:07:57;3.43;;;1.93;;
11548;SDS011;61444;59.472;18.306;2023-01-29T08:10:13;8.97;;;2.40;;
11548;SDS011;61444;59.472;18.306;2023-01-29T08:12:22;4.03;;;2.07;;
11548;SDS011;61444;59.472;18.306;2023-01-29T08:14:31;5.30;;;2.10;;
11548;SDS011;61444;59.472;18.306;2023-01-29T08:16:40;5.83;;;1.97;;
11548;SDS011;61444;59.472;18.306;2023-01-29T08:18:49;6.33;;;2.47;;
11548;SDS011;61444;59.472;18.306;2023-01-29T08:21:00;4.83;;;2.10;;
11548;SDS011;61444;59.472;18.306;2023-01-29T08:23:11;4.97;;;1.83;;
11548;SDS011;61444;59.472;18.306;2023-01-29T08:25:20;4.60;;;1.70;;
11548;SDS011;61444;59.472;18.306;2023-01-29T08:27:29;7.07;;;2.07;;
11548;SDS011;61444;59.472;18.306;2023-01-29T08:29:38;6.83;;;2.17;;
11548;SDS011;61444;59.472;18.306;2023-01-29T08:31:47;5.90;;;2.13;;
11548;SDS011;61444;59.472;18.306;2023-01-29T08:33:56;6.43;;;2.13;;
11548;SDS011;61444;59.472;18.306;2023-01-29T08:36:09;5.10;;;2.00;;
11548;SDS011;61444;59.472;18.306;2023-01-29T08:38:18;8.67;;;2.50;;
11548;SDS011;61444;59.472;18.306;2023-01-29T08:40:27;6.03;;;2.17;;
11548;SDS011;61444;59.472;18.306;2023-01-29T08:42:37;5.50;;;2.53;;
11548;SDS011;61444;59.472;18.306;2023-01-29T08:44:47;3.50;;;2.10;;
11548;SDS011;61444;59.472;18.306;2023-01-29T08:46:56;10.13;;;2.17;;
11548;SDS011;61444;59.472;18.306;2023-01-29T08:49:04;5.63;;;1.90;;
11548;SDS011;61444;59.472;18.306;2023-01-29T08:51:16;5.07;;;2.00;;
11548;SDS011;61444;59.472;18.306;2023-01-29T08:53:25;6.33;;;2.10;;
11548;SDS011;61444;59.472;18.306;2023-01-29T08:55:34;4.03;;;1.93;;
11548;SDS011;61444;59.472;18.306;2023-01-29T08:57:44;5.80;;;2.03;;
11548;SDS011;61444;59.472;18.306;2023-01-29T08:59:52;6.27;;;1.50;;
11548;SDS011;61444;59.472;18.306;2023-01-29T09:02:01;3.53;;;1.93;;
11548;SDS011;61444;59.472;18.306;2023-01-29T09:04:11;6.97;;;1.87;;
11548;SDS011;61444;59.472;18.306;2023-01-29T09:06:21;5.80;;;1.60;;
11548;SDS011;61444;59.472;18.306;2023-01-29T09:08:30;7.37;;;1.67;;
11548;SDS011;61444;59.472;18.306;2023-01-29T09:10:39;5.70;;;2.17;;
11548;SDS011;61444;59.472;18.306;2023-01-29T09:12:48;5.73;;;1.77;;
11548;SDS011;61444;59.472;18.306;2023-01-29T09:14:57;5.80;;;1.87;;
11548;SDS011;61444;59.472;18.306;2023-01-29T09:17:06;4.03;;;1.87;;
11548;SDS011;61444;59.472;18.306;2023-01-29T09:19:14;8.37;;;2.03;;
11548;SDS011;61444;59.472;18.306;2023-01-29T09:21:25;6.57;;;2.20;;
11548;SDS011;61444;59.472;18.306;2023-01-29T09:23:33;3.93;;;1.63;;
11548;SDS011;61444;59.472;18.306;2023-01-29T09:25:42;5.80;;;1.63;;
11548;SDS011;61444;59.472;18.306;2023-01-29T09:27:52;6.30;;;1.97;;
11548;SDS011;61444;59.472;18.306;2023-01-29T09:30:03;6.30;;;1.57;;
11548;SDS011;61444;59.472;18.306;2023-01-29T09:32:12;6.00;;;1.90;;
11548;SDS011;61444;59.472;18.306;2023-01-29T09:34:24;2.50;;;1.20;;
11548;SDS011;61444;59.472;18.306;2023-01-29T09:36:35;7.60;;;1.40;;
11548;SDS011;61444;59.472;18.306;2023-01-29T09:38:43;6.30;;;1.60;;
11548;SDS011;61444;59.472;18.306;2023-01-29T09:40:55;3.17;;;1.70;;
11548;SDS011;61444;59.472;18.306;2023-01-29T09:43:06;4.63;;;1.57;;
11548;SDS011;61444;59.472;18.306;2023-01-29T09:45:18;6.67;;;1.87;;
11548;SDS011;61444;59.472;18.306;2023-01-29T09:47:31;4.87;;;1.80;;
11548;SDS011;61444;59.472;18.306;2023-01-29T09:49:42;4.40;;;1.43;;
11548;SDS011;61444;59.472;18.306;2023-01-29T09:51:56;5.00;;;2.20;;
11548;SDS011;61444;59.472;18.306;2023-01-29T09:54:11;4.20;;;2.10;;
11548;SDS011;61444;59.472;18.306;2023-01-29T09:56:21;10.63;;;2.10;;
11548;SDS011;61444;59.472;18.306;2023-01-29T09:58:34;4.13;;;1.57;;
11548;SDS011;61444;59.472;18.306;2023-01-29T10:00:45;8.37;;;1.90;;
11548;SDS011;61444;59.472;18.306;2023-01-29T10:03:06;7.80;;;1.60;;
11548;SDS011;61444;59.472;18.306;2023-01-29T10:05:28;5.47;;;2.03;;
11548;SDS011;61444;59.472;18.306;2023-01-29T10:07:46;5.33;;;1.80;;
11548;SDS011;61444;59.472;18.306;2023-01-29T10:10:07;4.10;;;1.60;;
11548;SDS011;61444;59.472;18.306;2023-01-29T10:12:25;5.47;;;1.80;;
11548;SDS011;61444;59.472;18.306;2023-01-29T10:14:38;4.60;;;1.27;;
11548;SDS011;61444;59.472;18.306;2023-01-29T10:16:54;2.90;;;1.50;;
11548;SDS011;61444;59.472;18.306;2023-01-29T10:19:21;5.50;;;1.60;;
11548;SDS011;61444;59.472;18.306;2023-01-29T10:21:45;4.40;;;1.60;;
11548;SDS011;61444;59.472;18.306;2023-01-29T10:24:00;3.57;;;1.50;;
11548;SDS011;61444;59.472;18.306;2023-01-29T10:26:12;6.63;;;1.77;;
11548;SDS011;61444;59.472;18.306;2023-01-29T10:28:24;4.13;;;1.40;;
11548;SDS011;61444;59.472;18.306;2023-01-29T10:30:36;3.80;;;1.33;;
11548;SDS011;61444;59.472;18.306;2023-01-29T10:32:46;2.97;;;1.20;;
11548;SDS011;61444;59.472;18.306;2023-01-29T10:34:56;5.57;;;1.17;;
11548;SDS011;61444;59.472;18.306;2023-01-29T10:37:11;7.90;;;1.13;;
11548;SDS011;61444;59.472;18.306;2023-01-29T10:39:25;6.07;;;1.23;;
11548;SDS011;61444;59.472;18.306;2023-01-29T10:41:41;5.83;;;1.20;;
11548;SDS011;61444;59.472;18.306;2023-01-29T10:43:56;4.87;;;1.40;;
11548;SDS011;61444;59.472;18.306;2023-01-29T10:46:12;7.00;;;1.30;;
11548;SDS011;61444;59.472;18.306;2023-01-29T10:48:40;5.00;;;1.33;;
11548;SDS011;61444;59.472;18.306;2023-01-29T10:50:54;3.67;;;1.77;;
11548;SDS011;61444;59.472;18.306;2023-01-29T10:53:08;4.23;;;1.30;;
11548;SDS011;61444;59.472;18.306;2023-01-29T10:55:25;2.73;;;1.20;;
11548;SDS011;61444;59.472;18.306;2023-01-29T10:57:43;4.80;;;1.13;;
11548;SDS011;61444;59.472;18.306;2023-01-29T10:59:57;6.67;;;1.10;;
11548;SDS011;61444;59.472;18.306;2023-01-29T11:02:13;5.83;;;1.60;;
11548;SDS011;61444;59.472;18.306;2023-01-29T11:04:24;3.47;;;1.30;;
11548;SDS011;61444;59.472;18.306;2023-01-29T11:06:33;5.70;;;1.40;;
11548;SDS011;61444;59.472;18.306;2023-01-29T11:08:45;3.73;;;1.60;;
11548;SDS011;61444;59.472;18.306;2023-01-29T11:11:00;3.97;;;1.27;;
11548;SDS011;61444;59.472;18.306;2023-01-29T11:13:12;2.63;;;1.07;;
11548;SDS011;61444;59.472;18.306;2023-01-29T11:15:23;4.00;;;1.30;;
11548;SDS011;61444;59.472;18.306;2023-01-29T11:17:33;5.00;;;1.40;;
11548;SDS011;61444;59.472;18.306;2023-01-29T11:19:43;7.63;;;1.33;;
11548;SDS011;61444;59.472;18.306;2023-01-29T11:21:56;3.27;;;1.20;;
11548;SDS011;61444;59.472;18.306;2023-01-29T11:24:06;4.87;;;1.33;;
11548;SDS011;61444;59.472;18.306;2023-01-29T11:26:20;2.93;;;0.90;;
11548;SDS011;61444;59.472;18.306;2023-01-29T11:28:36;6.77;;;1.40;;
11548;SDS011;61444;59.472;18.306;2023-01-29T11:30:46;1.77;;;0.90;;
11548;SDS011;61444;59.472;18.306;2023-01-29T11:33:04;5.00;;;1.07;;
11548;SDS011;61444;59.472;18.306;2023-01-29T11:35:22;6.80;;;1.43;;
11548;SDS011;61444;59.472;18.306;2023-01-29T11:37:31;5.77;;;1.33;;
11548;SDS011;61444;59.472;18.306;2023-01-29T11:39:42;3.90;;;1.10;;
11548;SDS011;61444;59.472;18.306;2023-01-29T11:41:56;4.80;;;1.40;;
11548;SDS011;61444;59.472;18.306;2023-01-29T11:44:14;5.70;;;1.37;;
11548;SDS011;61444;59.472;18.306;2023-01-29T11:46:25;6.17;;;1.20;;
11548;SDS011;61444;59.472;18.306;2023-01-29T11:48:40;5.10;;;1.10;;
11548;SDS011;61444;59.472;18.306;2023-01-29T11:50:50;5.67;;;1.40;;
11548;SDS011;61444;59.472;18.306;2023-01-29T11:53:00;2.70;;;1.10;;
11548;SDS011;61444;59.472;18.306;2023-01-29T11:55:12;12.50;;;1.73;;
11548;SDS011;61444;59.472;18.306;2023-01-29T11:57:28;6.20;;;1.80;;
11548;SDS011;61444;59.472;18.306;2023-01-29T11:59:39;4.10;;;1.33;;
11548;SDS011;61444;59.472;18.306;2023-01-29T12:01:50;3.87;;;1.27;;
11548;SDS011;61444;59.472;18.306;2023-01-29T12:03:58;4.03;;;1.00;;
11548;SDS011;61444;59.472;18.306;2023-01-29T12:06:12;9.67;;;1.20;;
11548;SDS011;61444;59.472;18.306;2023-01-29T12:08:24;4.70;;;0.90;;
11548;SDS011;61444;59.472;18.306;2023-01-29T12:10:38;5.13;;;1.40;;
11548;SDS011;61444;59.472;18.306;2023-01-29T12:12:50;4.90;;;1.37;;
11548;SDS011;61444;59.472;18.306;2023-01-29T12:15:14;3.53;;;1.17;;
11548;SDS011;61444;59.472;18.306;2023-01-29T12:17:23;5.60;;;1.40;;
11548;SDS011;61444;59.472;18.306;2023-01-29T12:19:35;5.03;;;1.30;;
11548;SDS011;61444;59.472;18.306;2023-01-29T12:21:46;5.33;;;1.20;;
11548;SDS011;61444;59.472;18.306;2023-01-29T12:23:59;2.10;;;0.77;;
11548;SDS011;61444;59.472;18.306;2023-01-29T12:26:09;4.43;;;1.20;;
11548;SDS011;61444;59.472;18.306;2023-01-29T12:28:26;4.20;;;1.23;;
11548;SDS011;61444;59.472;18.306;2023-01-29T12:30:40;4.27;;;1.53;;
11548;SDS011;61444;59.472;18.306;2023-01-29T12:32:55;6.47;;;1.20;;
11548;SDS011;61444;59.472;18.306;2023-01-29T12:35:09;3.17;;;0.97;;
11548;SDS011;61444;59.472;18.306;2023-01-29T12:37:21;3.40;;;1.00;;
11548;SDS011;61444;59.472;18.306;2023-01-29T12:39:33;4.83;;;1.10;;
11548;SDS011;61444;59.472;18.306;2023-01-29T12:41:44;5.70;;;1.07;;
11548;SDS011;61444;59.472;18.306;2023-01-29T12:43:56;4.47;;;1.27;;
11548;SDS011;61444;59.472;18.306;2023-01-29T12:46:09;5.17;;;1.03;;
11548;SDS011;61444;59.472;18.306;2023-01-29T12:48:20;3.23;;;0.90;;
11548;SDS011;61444;59.472;18.306;2023-01-29T12:50:31;4.20;;;1.10;;
11548;SDS011;61444;59.472;18.306;2023-01-29T12:52:41;6.40;;;1.20;;
11548;SDS011;61444;59.472;18.306;2023-01-29T12:54:53;6.60;;;1.00;;
11548;SDS011;61444;59.472;18.306;2023-01-29T12:57:06;8.03;;;1.20;;
11548;SDS011;61444;59.472;18.306;2023-01-29T12:59:19;4.43;;;0.90;;
11548;SDS011;61444;59.472;18.306;2023-01-29T13:01:30;5.50;;;1.07;;
11548;SDS011;61444;59.472;18.306;2023-01-29T13:03:44;5.50;;;1.03;;
11548;SDS011;61444;59.472;18.306;2023-01-29T13:05:55;3.40;;;0.80;;
11548;SDS011;61444;59.472;18.306;2023-01-29T13:08:06;6.07;;;1.20;;
11548;SDS011;61444;59.472;18.306;2023-01-29T13:10:16;4.07;;;1.03;;